Aviation Digital Data Service (ADDS)

Output produced by METARs form (0025 UTC 24 September 2014)
found at http://aviationweather.gov/adds/metars/
 
KMSS 232320Z 2400/2424 VRB02KT P6SM BKN035 
     TEMPO 2402/2405 4SM BR FEW001 
     FM240500 00000KT 4SM BR FEW001 SCT035 
     TEMPO 2407/2411 2SM BR SCT001 
     FM241200 18005KT P6SM SCT035